sensor_id;sensor_type;location;lat;lon;timestamp;P1;durP1;ratioP1;P2;durP2;ratioP2
17854;SDS011;9053;53.358;6.382;2023-12-22T00:01:49;22.70;;;4.27;;
17854;SDS011;9053;53.358;6.382;2023-12-22T00:04:19;22.30;;;4.57;;
17854;SDS011;9053;53.358;6.382;2023-12-22T00:06:52;16.07;;;3.50;;
17854;SDS011;9053;53.358;6.382;2023-12-22T00:09:22;17.33;;;3.53;;
17854;SDS011;9053;53.358;6.382;2023-12-22T00:11:52;17.23;;;3.10;;
17854;SDS011;9053;53.358;6.382;2023-12-22T00:14:21;15.77;;;3.17;;
17854;SDS011;9053;53.358;6.382;2023-12-22T00:16:52;16.30;;;3.43;;
17854;SDS011;9053;53.358;6.382;2023-12-22T00:19:22;17.77;;;3.63;;
17854;SDS011;9053;53.358;6.382;2023-12-22T00:21:57;19.27;;;3.70;;
17854;SDS011;9053;53.358;6.382;2023-12-22T00:24:26;22.93;;;3.90;;
17854;SDS011;9053;53.358;6.382;2023-12-22T00:26:57;16.83;;;3.47;;
17854;SDS011;9053;53.358;6.382;2023-12-22T00:29:27;18.40;;;3.83;;
17854;SDS011;9053;53.358;6.382;2023-12-22T00:31:57;12.90;;;2.30;;
17854;SDS011;9053;53.358;6.382;2023-12-22T00:34:28;10.50;;;2.63;;
17854;SDS011;9053;53.358;6.382;2023-12-22T00:37:01;14.47;;;3.27;;
17854;SDS011;9053;53.358;6.382;2023-12-22T00:39:31;20.07;;;3.30;;
17854;SDS011;9053;53.358;6.382;2023-12-22T00:42:01;19.07;;;4.50;;
17854;SDS011;9053;53.358;6.382;2023-12-22T00:44:31;20.17;;;4.50;;
17854;SDS011;9053;53.358;6.382;2023-12-22T00:47:02;30.77;;;4.90;;
17854;SDS011;9053;53.358;6.382;2023-12-22T00:49:32;23.03;;;5.23;;
17854;SDS011;9053;53.358;6.382;2023-12-22T00:52:05;21.73;;;5.13;;
17854;SDS011;9053;53.358;6.382;2023-12-22T00:54:35;31.70;;;5.23;;
17854;SDS011;9053;53.358;6.382;2023-12-22T00:57:05;21.80;;;4.40;;
17854;SDS011;9053;53.358;6.382;2023-12-22T00:59:35;19.47;;;4.00;;
17854;SDS011;9053;53.358;6.382;2023-12-22T01:02:04;28.37;;;4.80;;
17854;SDS011;9053;53.358;6.382;2023-12-22T01:04:34;25.80;;;5.00;;
17854;SDS011;9053;53.358;6.382;2023-12-22T01:07:07;21.60;;;4.33;;
17854;SDS011;9053;53.358;6.382;2023-12-22T01:09:37;26.57;;;5.03;;
17854;SDS011;9053;53.358;6.382;2023-12-22T01:12:07;31.00;;;5.97;;
17854;SDS011;9053;53.358;6.382;2023-12-22T01:14:37;23.80;;;4.80;;
17854;SDS011;9053;53.358;6.382;2023-12-22T01:17:07;17.40;;;4.27;;
17854;SDS011;9053;53.358;6.382;2023-12-22T01:19:37;22.93;;;4.57;;
17854;SDS011;9053;53.358;6.382;2023-12-22T01:22:09;25.27;;;4.80;;
17854;SDS011;9053;53.358;6.382;2023-12-22T01:24:39;25.30;;;4.57;;
17854;SDS011;9053;53.358;6.382;2023-12-22T01:27:10;25.97;;;5.10;;
17854;SDS011;9053;53.358;6.382;2023-12-22T01:29:40;23.97;;;5.20;;
17854;SDS011;9053;53.358;6.382;2023-12-22T01:32:10;22.87;;;5.50;;
17854;SDS011;9053;53.358;6.382;2023-12-22T01:34:42;23.67;;;4.47;;
17854;SDS011;9053;53.358;6.382;2023-12-22T01:37:15;19.83;;;4.03;;
17854;SDS011;9053;53.358;6.382;2023-12-22T01:39:45;11.90;;;2.67;;
17854;SDS011;9053;53.358;6.382;2023-12-22T01:42:15;15.67;;;2.80;;
17854;SDS011;9053;53.358;6.382;2023-12-22T01:44:45;12.33;;;3.10;;
17854;SDS011;9053;53.358;6.382;2023-12-22T01:47:15;23.93;;;3.87;;
17854;SDS011;9053;53.358;6.382;2023-12-22T01:49:46;14.87;;;3.50;;
17854;SDS011;9053;53.358;6.382;2023-12-22T01:52:20;20.80;;;3.87;;
17854;SDS011;9053;53.358;6.382;2023-12-22T01:54:51;24.47;;;4.23;;
17854;SDS011;9053;53.358;6.382;2023-12-22T01:57:22;19.90;;;4.10;;
17854;SDS011;9053;53.358;6.382;2023-12-22T01:59:52;26.23;;;4.63;;
17854;SDS011;9053;53.358;6.382;2023-12-22T02:02:22;23.73;;;4.57;;
17854;SDS011;9053;53.358;6.382;2023-12-22T02:04:52;13.47;;;2.53;;
17854;SDS011;9053;53.358;6.382;2023-12-22T02:07:25;10.10;;;2.00;;
17854;SDS011;9053;53.358;6.382;2023-12-22T02:09:56;8.33;;;2.07;;
17854;SDS011;9053;53.358;6.382;2023-12-22T02:12:27;8.07;;;1.93;;
17854;SDS011;9053;53.358;6.382;2023-12-22T02:14:56;11.00;;;2.63;;
17854;SDS011;9053;53.358;6.382;2023-12-22T02:17:29;11.67;;;2.60;;
17854;SDS011;9053;53.358;6.382;2023-12-22T02:20:06;19.43;;;3.27;;
17854;SDS011;9053;53.358;6.382;2023-12-22T02:22:41;16.30;;;3.40;;
17854;SDS011;9053;53.358;6.382;2023-12-22T02:25:11;15.23;;;3.47;;
17854;SDS011;9053;53.358;6.382;2023-12-22T02:27:43;18.73;;;3.67;;
17854;SDS011;9053;53.358;6.382;2023-12-22T02:30:19;17.63;;;3.43;;
17854;SDS011;9053;53.358;6.382;2023-12-22T02:32:56;21.63;;;4.03;;
17854;SDS011;9053;53.358;6.382;2023-12-22T02:35:29;15.87;;;3.60;;
17854;SDS011;9053;53.358;6.382;2023-12-22T02:38:05;20.77;;;3.60;;
17854;SDS011;9053;53.358;6.382;2023-12-22T02:40:36;20.33;;;4.13;;
17854;SDS011;9053;53.358;6.382;2023-12-22T02:43:06;20.03;;;3.67;;
17854;SDS011;9053;53.358;6.382;2023-12-22T02:45:37;20.20;;;4.47;;
17854;SDS011;9053;53.358;6.382;2023-12-22T02:48:07;22.63;;;4.00;;
17854;SDS011;9053;53.358;6.382;2023-12-22T02:50:38;16.30;;;2.67;;
17854;SDS011;9053;53.358;6.382;2023-12-22T02:53:10;16.03;;;2.80;;
17854;SDS011;9053;53.358;6.382;2023-12-22T02:55:40;13.60;;;2.30;;
17854;SDS011;9053;53.358;6.382;2023-12-22T02:58:10;9.53;;;2.20;;
17854;SDS011;9053;53.358;6.382;2023-12-22T03:00:40;12.97;;;2.40;;
17854;SDS011;9053;53.358;6.382;2023-12-22T03:03:10;12.73;;;3.03;;
17854;SDS011;9053;53.358;6.382;2023-12-22T03:05:41;12.90;;;2.70;;
17854;SDS011;9053;53.358;6.382;2023-12-22T03:08:13;12.63;;;2.80;;
17854;SDS011;9053;53.358;6.382;2023-12-22T03:10:43;12.03;;;2.63;;
17854;SDS011;9053;53.358;6.382;2023-12-22T03:13:13;19.83;;;3.63;;
17854;SDS011;9053;53.358;6.382;2023-12-22T03:15:45;18.17;;;3.43;;
17854;SDS011;9053;53.358;6.382;2023-12-22T03:18:16;14.10;;;3.10;;
17854;SDS011;9053;53.358;6.382;2023-12-22T03:20:46;22.10;;;4.43;;
17854;SDS011;9053;53.358;6.382;2023-12-22T03:23:19;14.87;;;3.80;;
17854;SDS011;9053;53.358;6.382;2023-12-22T03:25:49;17.57;;;3.90;;
17854;SDS011;9053;53.358;6.382;2023-12-22T03:28:19;18.67;;;4.20;;
17854;SDS011;9053;53.358;6.382;2023-12-22T03:30:48;16.77;;;3.97;;
17854;SDS011;9053;53.358;6.382;2023-12-22T03:33:16;16.63;;;4.03;;
17854;SDS011;9053;53.358;6.382;2023-12-22T03:35:46;22.03;;;4.00;;
17854;SDS011;9053;53.358;6.382;2023-12-22T03:38:19;11.77;;;3.60;;
17854;SDS011;9053;53.358;6.382;2023-12-22T03:40:49;24.47;;;4.33;;
17854;SDS011;9053;53.358;6.382;2023-12-22T03:43:19;14.10;;;3.33;;
17854;SDS011;9053;53.358;6.382;2023-12-22T03:45:49;19.33;;;4.27;;
17854;SDS011;9053;53.358;6.382;2023-12-22T03:48:19;17.67;;;4.23;;
17854;SDS011;9053;53.358;6.382;2023-12-22T03:50:49;13.77;;;3.17;;
17854;SDS011;9053;53.358;6.382;2023-12-22T03:53:21;17.87;;;3.40;;
17854;SDS011;9053;53.358;6.382;2023-12-22T03:55:51;15.37;;;3.00;;
17854;SDS011;9053;53.358;6.382;2023-12-22T03:58:21;15.17;;;3.13;;
17854;SDS011;9053;53.358;6.382;2023-12-22T04:00:52;17.27;;;3.73;;
17854;SDS011;9053;53.358;6.382;2023-12-22T04:03:23;19.70;;;4.23;;
17854;SDS011;9053;53.358;6.382;2023-12-22T04:05:53;26.90;;;4.33;;
17854;SDS011;9053;53.358;6.382;2023-12-22T04:08:25;23.37;;;4.83;;
17854;SDS011;9053;53.358;6.382;2023-12-22T04:10:55;23.27;;;5.13;;
17854;SDS011;9053;53.358;6.382;2023-12-22T04:13:26;23.70;;;4.73;;
17854;SDS011;9053;53.358;6.382;2023-12-22T04:15:55;25.50;;;4.60;;
17854;SDS011;9053;53.358;6.382;2023-12-22T04:18:25;20.57;;;4.50;;
17854;SDS011;9053;53.358;6.382;2023-12-22T04:20:56;18.07;;;3.60;;
17854;SDS011;9053;53.358;6.382;2023-12-22T04:23:28;17.13;;;4.07;;
17854;SDS011;9053;53.358;6.382;2023-12-22T04:25:58;15.33;;;2.77;;
17854;SDS011;9053;53.358;6.382;2023-12-22T04:28:28;14.17;;;3.33;;
17854;SDS011;9053;53.358;6.382;2023-12-22T04:30:59;18.77;;;3.20;;
17854;SDS011;9053;53.358;6.382;2023-12-22T04:33:29;15.47;;;4.10;;
17854;SDS011;9053;53.358;6.382;2023-12-22T04:35:59;27.77;;;4.40;;
17854;SDS011;9053;53.358;6.382;2023-12-22T04:38:36;22.30;;;4.57;;
17854;SDS011;9053;53.358;6.382;2023-12-22T04:41:07;23.27;;;3.97;;
17854;SDS011;9053;53.358;6.382;2023-12-22T04:43:37;20.63;;;3.63;;
17854;SDS011;9053;53.358;6.382;2023-12-22T04:46:07;13.70;;;3.07;;
17854;SDS011;9053;53.358;6.382;2023-12-22T04:48:37;14.87;;;3.17;;
17854;SDS011;9053;53.358;6.382;2023-12-22T04:51:07;16.57;;;3.23;;
17854;SDS011;9053;53.358;6.382;2023-12-22T04:53:39;16.73;;;3.70;;
17854;SDS011;9053;53.358;6.382;2023-12-22T04:56:09;16.73;;;3.07;;
17854;SDS011;9053;53.358;6.382;2023-12-22T04:58:39;19.43;;;3.63;;
17854;SDS011;9053;53.358;6.382;2023-12-22T05:01:09;21.93;;;3.70;;
17854;SDS011;9053;53.358;6.382;2023-12-22T05:03:39;19.43;;;3.90;;
17854;SDS011;9053;53.358;6.382;2023-12-22T05:06:09;17.57;;;4.00;;
17854;SDS011;9053;53.358;6.382;2023-12-22T05:08:42;19.53;;;3.70;;
17854;SDS011;9053;53.358;6.382;2023-12-22T05:11:11;15.27;;;3.10;;
17854;SDS011;9053;53.358;6.382;2023-12-22T05:13:41;17.93;;;3.40;;
17854;SDS011;9053;53.358;6.382;2023-12-22T05:16:12;14.27;;;3.40;;
17854;SDS011;9053;53.358;6.382;2023-12-22T05:18:42;18.77;;;3.57;;
17854;SDS011;9053;53.358;6.382;2023-12-22T05:21:12;16.80;;;3.80;;
17854;SDS011;9053;53.358;6.382;2023-12-22T05:23:46;16.47;;;3.43;;
17854;SDS011;9053;53.358;6.382;2023-12-22T05:26:17;16.63;;;3.40;;
17854;SDS011;9053;53.358;6.382;2023-12-22T05:28:47;24.73;;;4.20;;
17854;SDS011;9053;53.358;6.382;2023-12-22T05:31:18;21.73;;;4.13;;
17854;SDS011;9053;53.358;6.382;2023-12-22T05:33:49;16.73;;;3.87;;
17854;SDS011;9053;53.358;6.382;2023-12-22T05:36:18;16.33;;;4.03;;
17854;SDS011;9053;53.358;6.382;2023-12-22T05:38:51;22.10;;;4.40;;
17854;SDS011;9053;53.358;6.382;2023-12-22T05:41:21;16.63;;;3.97;;
17854;SDS011;9053;53.358;6.382;2023-12-22T05:43:51;19.33;;;3.13;;
17854;SDS011;9053;53.358;6.382;2023-12-22T05:46:21;21.77;;;4.10;;
17854;SDS011;9053;53.358;6.382;2023-12-22T05:48:52;21.63;;;4.20;;
17854;SDS011;9053;53.358;6.382;2023-12-22T05:51:24;15.80;;;3.70;;
17854;SDS011;9053;53.358;6.382;2023-12-22T05:53:57;17.53;;;3.83;;
17854;SDS011;9053;53.358;6.382;2023-12-22T05:56:27;21.27;;;4.47;;
17854;SDS011;9053;53.358;6.382;2023-12-22T05:58:57;16.93;;;3.60;;
17854;SDS011;9053;53.358;6.382;2023-12-22T06:01:27;19.40;;;3.97;;
17854;SDS011;9053;53.358;6.382;2023-12-22T06:03:57;13.67;;;3.10;;
17854;SDS011;9053;53.358;6.382;2023-12-22T06:06:27;13.87;;;3.73;;
17854;SDS011;9053;53.358;6.382;2023-12-22T06:08:59;15.77;;;4.00;;
17854;SDS011;9053;53.358;6.382;2023-12-22T06:11:30;18.63;;;4.30;;
17854;SDS011;9053;53.358;6.382;2023-12-22T06:14:00;13.40;;;3.50;;
17854;SDS011;9053;53.358;6.382;2023-12-22T06:16:30;19.47;;;3.90;;
17854;SDS011;9053;53.358;6.382;2023-12-22T06:19:00;20.33;;;4.00;;
17854;SDS011;9053;53.358;6.382;2023-12-22T06:21:30;16.77;;;3.23;;
17854;SDS011;9053;53.358;6.382;2023-12-22T06:24:02;14.67;;;2.70;;
17854;SDS011;9053;53.358;6.382;2023-12-22T06:26:33;21.17;;;4.40;;
17854;SDS011;9053;53.358;6.382;2023-12-22T06:29:03;15.23;;;3.27;;
17854;SDS011;9053;53.358;6.382;2023-12-22T06:31:34;22.03;;;4.97;;
17854;SDS011;9053;53.358;6.382;2023-12-22T06:34:04;17.33;;;3.63;;
17854;SDS011;9053;53.358;6.382;2023-12-22T06:36:34;12.00;;;2.20;;
17854;SDS011;9053;53.358;6.382;2023-12-22T06:39:07;7.30;;;2.47;;
17854;SDS011;9053;53.358;6.382;2023-12-22T06:41:37;16.60;;;3.27;;
17854;SDS011;9053;53.358;6.382;2023-12-22T06:44:09;10.70;;;2.87;;
17854;SDS011;9053;53.358;6.382;2023-12-22T06:46:39;17.13;;;3.13;;
17854;SDS011;9053;53.358;6.382;2023-12-22T06:49:09;14.90;;;3.37;;
17854;SDS011;9053;53.358;6.382;2023-12-22T06:51:39;20.33;;;3.20;;
17854;SDS011;9053;53.358;6.382;2023-12-22T06:54:11;19.10;;;3.80;;
17854;SDS011;9053;53.358;6.382;2023-12-22T06:56:43;16.57;;;3.43;;
17854;SDS011;9053;53.358;6.382;2023-12-22T06:59:13;13.87;;;3.13;;
17854;SDS011;9053;53.358;6.382;2023-12-22T07:01:43;13.40;;;2.93;;
17854;SDS011;9053;53.358;6.382;2023-12-22T07:07:34;19.57;;;4.17;;
17854;SDS011;9053;53.358;6.382;2023-12-22T07:10:07;19.63;;;3.50;;
17854;SDS011;9053;53.358;6.382;2023-12-22T07:12:39;14.23;;;2.97;;
17854;SDS011;9053;53.358;6.382;2023-12-22T07:15:09;14.73;;;3.13;;
17854;SDS011;9053;53.358;6.382;2023-12-22T07:17:39;18.20;;;3.23;;
17854;SDS011;9053;53.358;6.382;2023-12-22T07:20:10;16.67;;;2.83;;
17854;SDS011;9053;53.358;6.382;2023-12-22T07:22:40;14.13;;;3.33;;
17854;SDS011;9053;53.358;6.382;2023-12-22T07:25:13;15.77;;;3.37;;
17854;SDS011;9053;53.358;6.382;2023-12-22T07:27:43;20.93;;;3.60;;
17854;SDS011;9053;53.358;6.382;2023-12-22T07:30:14;17.40;;;3.67;;
17854;SDS011;9053;53.358;6.382;2023-12-22T07:32:47;17.70;;;3.30;;
17854;SDS011;9053;53.358;6.382;2023-12-22T07:35:20;13.97;;;3.53;;
17854;SDS011;9053;53.358;6.382;2023-12-22T07:37:50;16.00;;;3.87;;
17854;SDS011;9053;53.358;6.382;2023-12-22T07:40:25;21.27;;;4.00;;
17854;SDS011;9053;53.358;6.382;2023-12-22T07:42:57;22.60;;;3.93;;
17854;SDS011;9053;53.358;6.382;2023-12-22T07:45:27;18.73;;;4.13;;
17854;SDS011;9053;53.358;6.382;2023-12-22T07:47:57;18.93;;;3.90;;
17854;SDS011;9053;53.358;6.382;2023-12-22T07:50:27;25.13;;;4.57;;
17854;SDS011;9053;53.358;6.382;2023-12-22T07:52:58;17.87;;;3.87;;
17854;SDS011;9053;53.358;6.382;2023-12-22T07:55:35;23.03;;;4.10;;
17854;SDS011;9053;53.358;6.382;2023-12-22T07:58:06;17.87;;;3.80;;
17854;SDS011;9053;53.358;6.382;2023-12-22T08:00:36;19.37;;;4.80;;
17854;SDS011;9053;53.358;6.382;2023-12-22T08:03:06;20.37;;;4.00;;
17854;SDS011;9053;53.358;6.382;2023-12-22T08:05:36;13.53;;;3.80;;
17854;SDS011;9053;53.358;6.382;2023-12-22T08:08:06;18.43;;;4.20;;
17854;SDS011;9053;53.358;6.382;2023-12-22T08:10:39;17.10;;;3.43;;
17854;SDS011;9053;53.358;6.382;2023-12-22T08:13:09;24.07;;;3.87;;
17854;SDS011;9053;53.358;6.382;2023-12-22T08:15:38;16.47;;;3.30;;
17854;SDS011;9053;53.358;6.382;2023-12-22T08:18:09;19.20;;;3.50;;
17854;SDS011;9053;53.358;6.382;2023-12-22T08:20:39;11.80;;;2.53;;
17854;SDS011;9053;53.358;6.382;2023-12-22T08:23:13;12.43;;;2.50;;
17854;SDS011;9053;53.358;6.382;2023-12-22T08:25:46;15.93;;;2.90;;
17854;SDS011;9053;53.358;6.382;2023-12-22T08:28:16;13.43;;;3.00;;
17854;SDS011;9053;53.358;6.382;2023-12-22T08:30:46;17.17;;;3.20;;
17854;SDS011;9053;53.358;6.382;2023-12-22T08:33:16;17.27;;;3.30;;
17854;SDS011;9053;53.358;6.382;2023-12-22T08:35:49;15.23;;;2.87;;
17854;SDS011;9053;53.358;6.382;2023-12-22T08:38:20;15.13;;;3.00;;
17854;SDS011;9053;53.358;6.382;2023-12-22T08:40:53;16.53;;;2.97;;
17854;SDS011;9053;53.358;6.382;2023-12-22T08:43:28;18.83;;;4.17;;
17854;SDS011;9053;53.358;6.382;2023-12-22T08:45:58;12.00;;;3.00;;
17854;SDS011;9053;53.358;6.382;2023-12-22T08:48:28;19.50;;;3.50;;
17854;SDS011;9053;53.358;6.382;2023-12-22T08:50:58;19.80;;;3.97;;
17854;SDS011;9053;53.358;6.382;2023-12-22T08:53:28;18.13;;;3.93;;
17854;SDS011;9053;53.358;6.382;2023-12-22T08:56:03;17.80;;;3.33;;
17854;SDS011;9053;53.358;6.382;2023-12-22T08:58:35;17.60;;;3.53;;
17854;SDS011;9053;53.358;6.382;2023-12-22T09:01:05;15.87;;;3.37;;
17854;SDS011;9053;53.358;6.382;2023-12-22T09:03:35;15.10;;;3.40;;
17854;SDS011;9053;53.358;6.382;2023-12-22T09:06:10;15.50;;;3.33;;
17854;SDS011;9053;53.358;6.382;2023-12-22T09:08:40;15.43;;;3.53;;
17854;SDS011;9053;53.358;6.382;2023-12-22T09:11:13;11.07;;;2.67;;
17854;SDS011;9053;53.358;6.382;2023-12-22T09:13:46;14.87;;;2.80;;
17854;SDS011;9053;53.358;6.382;2023-12-22T09:16:20;14.13;;;2.43;;
17854;SDS011;9053;53.358;6.382;2023-12-22T09:18:52;18.23;;;3.53;;
17854;SDS011;9053;53.358;6.382;2023-12-22T09:21:22;18.40;;;3.80;;
17854;SDS011;9053;53.358;6.382;2023-12-22T09:23:52;13.87;;;3.20;;
17854;SDS011;9053;53.358;6.382;2023-12-22T09:26:25;21.57;;;5.20;;
17854;SDS011;9053;53.358;6.382;2023-12-22T09:28:56;15.07;;;4.03;;
17854;SDS011;9053;53.358;6.382;2023-12-22T09:31:26;20.20;;;4.27;;
17854;SDS011;9053;53.358;6.382;2023-12-22T09:33:59;24.57;;;4.03;;
17854;SDS011;9053;53.358;6.382;2023-12-22T09:36:30;20.30;;;3.93;;
17854;SDS011;9053;53.358;6.382;2023-12-22T09:39:00;14.23;;;3.10;;
17854;SDS011;9053;53.358;6.382;2023-12-22T09:41:33;11.57;;;3.20;;
17854;SDS011;9053;53.358;6.382;2023-12-22T09:44:03;15.13;;;3.07;;
17854;SDS011;9053;53.358;6.382;2023-12-22T09:46:35;14.80;;;2.97;;
17854;SDS011;9053;53.358;6.382;2023-12-22T09:49:05;15.57;;;3.13;;
17854;SDS011;9053;53.358;6.382;2023-12-22T09:51:37;10.87;;;2.40;;
17854;SDS011;9053;53.358;6.382;2023-12-22T09:54:09;12.07;;;3.27;;
17854;SDS011;9053;53.358;6.382;2023-12-22T09:56:42;13.63;;;2.77;;
17854;SDS011;9053;53.358;6.382;2023-12-22T09:59:14;17.33;;;2.97;;
17854;SDS011;9053;53.358;6.382;2023-12-22T10:01:47;12.80;;;2.37;;
17854;SDS011;9053;53.358;6.382;2023-12-22T10:04:19;14.87;;;3.07;;
17854;SDS011;9053;53.358;6.382;2023-12-22T10:06:49;8.53;;;2.37;;
17854;SDS011;9053;53.358;6.382;2023-12-22T10:09:20;11.60;;;2.67;;
17854;SDS011;9053;53.358;6.382;2023-12-22T10:11:55;11.77;;;2.87;;
17854;SDS011;9053;53.358;6.382;2023-12-22T10:14:26;11.77;;;2.60;;
17854;SDS011;9053;53.358;6.382;2023-12-22T10:16:57;15.17;;;2.60;;
17854;SDS011;9053;53.358;6.382;2023-12-22T10:19:27;12.93;;;3.03;;
17854;SDS011;9053;53.358;6.382;2023-12-22T10:21:57;16.00;;;2.80;;
17854;SDS011;9053;53.358;6.382;2023-12-22T10:24:36;12.47;;;3.30;;
17854;SDS011;9053;53.358;6.382;2023-12-22T10:27:11;13.43;;;3.00;;
17854;SDS011;9053;53.358;6.382;2023-12-22T10:29:43;12.03;;;3.00;;
17854;SDS011;9053;53.358;6.382;2023-12-22T10:32:13;12.37;;;3.00;;
17854;SDS011;9053;53.358;6.382;2023-12-22T10:34:43;13.27;;;2.73;;
17854;SDS011;9053;53.358;6.382;2023-12-22T10:37:14;14.07;;;3.23;;
17854;SDS011;9053;53.358;6.382;2023-12-22T10:39:45;13.53;;;2.80;;
17854;SDS011;9053;53.358;6.382;2023-12-22T10:42:19;22.27;;;3.80;;
17854;SDS011;9053;53.358;6.382;2023-12-22T10:44:49;15.23;;;3.00;;
17854;SDS011;9053;53.358;6.382;2023-12-22T10:47:19;11.87;;;3.30;;
17854;SDS011;9053;53.358;6.382;2023-12-22T10:49:50;14.70;;;3.50;;
17854;SDS011;9053;53.358;6.382;2023-12-22T10:52:20;16.17;;;3.43;;
17854;SDS011;9053;53.358;6.382;2023-12-22T10:54:51;15.27;;;3.70;;
17854;SDS011;9053;53.358;6.382;2023-12-22T10:57:23;15.80;;;2.80;;
17854;SDS011;9053;53.358;6.382;2023-12-22T10:59:55;13.50;;;3.30;;
17854;SDS011;9053;53.358;6.382;2023-12-22T11:02:28;9.60;;;2.83;;
17854;SDS011;9053;53.358;6.382;2023-12-22T11:05:00;11.77;;;2.43;;
17854;SDS011;9053;53.358;6.382;2023-12-22T11:07:33;13.10;;;2.90;;
17854;SDS011;9053;53.358;6.382;2023-12-22T11:10:06;10.93;;;2.77;;
17854;SDS011;9053;53.358;6.382;2023-12-22T11:12:39;13.87;;;2.80;;
17854;SDS011;9053;53.358;6.382;2023-12-22T11:15:11;16.33;;;3.13;;
17854;SDS011;9053;53.358;6.382;2023-12-22T11:17:43;11.13;;;2.53;;
17854;SDS011;9053;53.358;6.382;2023-12-22T11:20:17;12.20;;;2.77;;
17854;SDS011;9053;53.358;6.382;2023-12-22T11:22:48;14.23;;;2.43;;
17854;SDS011;9053;53.358;6.382;2023-12-22T11:25:19;11.57;;;2.57;;
17854;SDS011;9053;53.358;6.382;2023-12-22T11:27:54;12.33;;;2.43;;
17854;SDS011;9053;53.358;6.382;2023-12-22T11:30:28;12.83;;;3.17;;
17854;SDS011;9053;53.358;6.382;2023-12-22T11:33:00;11.83;;;2.63;;
17854;SDS011;9053;53.358;6.382;2023-12-22T11:35:33;9.87;;;2.30;;
17854;SDS011;9053;53.358;6.382;2023-12-22T11:38:04;13.33;;;2.50;;
17854;SDS011;9053;53.358;6.382;2023-12-22T11:40:35;11.57;;;2.10;;
17854;SDS011;9053;53.358;6.382;2023-12-22T11:43:08;8.83;;;2.67;;
17854;SDS011;9053;53.358;6.382;2023-12-22T11:45:38;10.60;;;2.43;;
17854;SDS011;9053;53.358;6.382;2023-12-22T11:48:11;10.53;;;2.33;;
17854;SDS011;9053;53.358;6.382;2023-12-22T11:50:41;16.43;;;2.80;;
17854;SDS011;9053;53.358;6.382;2023-12-22T11:53:19;14.20;;;3.40;;
17854;SDS011;9053;53.358;6.382;2023-12-22T11:55:57;11.43;;;3.00;;
17854;SDS011;9053;53.358;6.382;2023-12-22T11:58:35;15.20;;;2.87;;
17854;SDS011;9053;53.358;6.382;2023-12-22T12:01:07;14.93;;;2.67;;
17854;SDS011;9053;53.358;6.382;2023-12-22T12:03:40;11.83;;;2.80;;
17854;SDS011;9053;53.358;6.382;2023-12-22T12:06:14;11.23;;;2.83;;
17854;SDS011;9053;53.358;6.382;2023-12-22T12:08:45;7.93;;;2.10;;
17854;SDS011;9053;53.358;6.382;2023-12-22T12:11:15;10.97;;;3.20;;
17854;SDS011;9053;53.358;6.382;2023-12-22T12:13:48;12.00;;;2.40;;
17854;SDS011;9053;53.358;6.382;2023-12-22T12:16:20;14.20;;;2.67;;
17854;SDS011;9053;53.358;6.382;2023-12-22T12:18:52;11.83;;;2.90;;
17854;SDS011;9053;53.358;6.382;2023-12-22T12:21:23;16.27;;;3.17;;
17854;SDS011;9053;53.358;6.382;2023-12-22T12:23:53;12.40;;;2.80;;
17854;SDS011;9053;53.358;6.382;2023-12-22T12:26:23;15.33;;;2.97;;
17854;SDS011;9053;53.358;6.382;2023-12-22T12:28:56;13.93;;;3.67;;
17854;SDS011;9053;53.358;6.382;2023-12-22T12:31:35;9.27;;;2.00;;
17854;SDS011;9053;53.358;6.382;2023-12-22T12:34:06;7.77;;;1.87;;
17854;SDS011;9053;53.358;6.382;2023-12-22T12:36:36;8.33;;;2.00;;
17854;SDS011;9053;53.358;6.382;2023-12-22T12:39:08;6.93;;;1.63;;
17854;SDS011;9053;53.358;6.382;2023-12-22T12:41:43;8.70;;;2.40;;
17854;SDS011;9053;53.358;6.382;2023-12-22T12:44:25;9.70;;;1.80;;
17854;SDS011;9053;53.358;6.382;2023-12-22T12:46:59;7.07;;;1.50;;
17854;SDS011;9053;53.358;6.382;2023-12-22T12:49:40;8.50;;;1.97;;
17854;SDS011;9053;53.358;6.382;2023-12-22T12:52:11;9.17;;;2.23;;
17854;SDS011;9053;53.358;6.382;2023-12-22T12:54:42;9.83;;;2.17;;
17854;SDS011;9053;53.358;6.382;2023-12-22T12:57:15;7.07;;;1.83;;
17854;SDS011;9053;53.358;6.382;2023-12-22T12:59:48;9.40;;;2.27;;
17854;SDS011;9053;53.358;6.382;2023-12-22T13:02:21;9.30;;;1.70;;
17854;SDS011;9053;53.358;6.382;2023-12-22T13:04:51;9.93;;;2.27;;
17854;SDS011;9053;53.358;6.382;2023-12-22T13:07:24;16.60;;;2.70;;
17854;SDS011;9053;53.358;6.382;2023-12-22T13:09:55;8.03;;;2.00;;
17854;SDS011;9053;53.358;6.382;2023-12-22T13:12:26;8.67;;;2.27;;
17854;SDS011;9053;53.358;6.382;2023-12-22T13:15:04;13.30;;;2.70;;
17854;SDS011;9053;53.358;6.382;2023-12-22T13:17:35;10.03;;;2.40;;
17854;SDS011;9053;53.358;6.382;2023-12-22T13:20:07;10.63;;;2.37;;
17854;SDS011;9053;53.358;6.382;2023-12-22T13:22:39;9.70;;;2.20;;
17854;SDS011;9053;53.358;6.382;2023-12-22T13:25:09;11.30;;;2.10;;
17854;SDS011;9053;53.358;6.382;2023-12-22T13:27:45;15.23;;;2.40;;
17854;SDS011;9053;53.358;6.382;2023-12-22T13:33:08;10.73;;;2.40;;
17854;SDS011;9053;53.358;6.382;2023-12-22T13:35:38;17.33;;;3.93;;
17854;SDS011;9053;53.358;6.382;2023-12-22T13:38:09;18.73;;;3.03;;
17854;SDS011;9053;53.358;6.382;2023-12-22T13:40:43;11.20;;;2.90;;
17854;SDS011;9053;53.358;6.382;2023-12-22T13:43:15;9.77;;;3.20;;
17854;SDS011;9053;53.358;6.382;2023-12-22T13:45:51;14.73;;;3.00;;
17854;SDS011;9053;53.358;6.382;2023-12-22T13:48:21;13.73;;;2.67;;
17854;SDS011;9053;53.358;6.382;2023-12-22T13:50:55;12.60;;;2.00;;
17854;SDS011;9053;53.358;6.382;2023-12-22T13:53:26;7.97;;;1.93;;
17854;SDS011;9053;53.358;6.382;2023-12-22T13:55:57;9.30;;;2.10;;
17854;SDS011;9053;53.358;6.382;2023-12-22T13:58:27;9.97;;;1.93;;
17854;SDS011;9053;53.358;6.382;2023-12-22T14:01:00;9.13;;;1.70;;
17854;SDS011;9053;53.358;6.382;2023-12-22T14:03:43;6.53;;;1.80;;
17854;SDS011;9053;53.358;6.382;2023-12-22T14:06:15;8.93;;;1.93;;
17854;SDS011;9053;53.358;6.382;2023-12-22T14:08:45;9.43;;;1.70;;
17854;SDS011;9053;53.358;6.382;2023-12-22T14:11:16;7.43;;;2.23;;
17854;SDS011;9053;53.358;6.382;2023-12-22T14:13:46;10.93;;;2.50;;
17854;SDS011;9053;53.358;6.382;2023-12-22T14:16:19;7.57;;;1.63;;
17854;SDS011;9053;53.358;6.382;2023-12-22T14:18:52;8.40;;;1.73;;
17854;SDS011;9053;53.358;6.382;2023-12-22T14:21:22;9.67;;;1.97;;
17854;SDS011;9053;53.358;6.382;2023-12-22T14:23:52;13.07;;;2.40;;
17854;SDS011;9053;53.358;6.382;2023-12-22T14:26:22;8.20;;;1.80;;
17854;SDS011;9053;53.358;6.382;2023-12-22T14:28:52;7.47;;;2.00;;
17854;SDS011;9053;53.358;6.382;2023-12-22T14:31:25;5.63;;;1.73;;
17854;SDS011;9053;53.358;6.382;2023-12-22T14:33:55;8.43;;;2.23;;
17854;SDS011;9053;53.358;6.382;2023-12-22T14:36:25;8.63;;;1.90;;
17854;SDS011;9053;53.358;6.382;2023-12-22T14:38:55;9.97;;;2.00;;
17854;SDS011;9053;53.358;6.382;2023-12-22T14:41:25;7.80;;;1.70;;
17854;SDS011;9053;53.358;6.382;2023-12-22T14:43:56;9.77;;;1.87;;
17854;SDS011;9053;53.358;6.382;2023-12-22T14:46:29;7.93;;;2.20;;
17854;SDS011;9053;53.358;6.382;2023-12-22T14:48:59;12.10;;;2.00;;
17854;SDS011;9053;53.358;6.382;2023-12-22T14:51:29;8.70;;;1.53;;
17854;SDS011;9053;53.358;6.382;2023-12-22T14:54:05;6.27;;;1.87;;
17854;SDS011;9053;53.358;6.382;2023-12-22T14:56:38;8.50;;;1.80;;
17854;SDS011;9053;53.358;6.382;2023-12-22T14:59:09;8.93;;;1.80;;
17854;SDS011;9053;53.358;6.382;2023-12-22T15:01:44;9.90;;;2.20;;
17854;SDS011;9053;53.358;6.382;2023-12-22T15:04:15;8.17;;;2.17;;
17854;SDS011;9053;53.358;6.382;2023-12-22T15:06:48;8.43;;;2.00;;
17854;SDS011;9053;53.358;6.382;2023-12-22T15:09:27;5.33;;;1.60;;
17854;SDS011;9053;53.358;6.382;2023-12-22T15:11:57;7.37;;;2.70;;
17854;SDS011;9053;53.358;6.382;2023-12-22T15:14:27;11.47;;;2.97;;
17854;SDS011;9053;53.358;6.382;2023-12-22T15:17:00;5.60;;;1.50;;
17854;SDS011;9053;53.358;6.382;2023-12-22T15:19:30;8.37;;;1.70;;
17854;SDS011;9053;53.358;6.382;2023-12-22T15:22:00;7.17;;;2.20;;